sensor_id;sensor_type;location;lat;lon;timestamp;P1;durP1;ratioP1;P2;durP2;ratioP2
60078;SDS011;45951;45.824;8.824;2023-04-06T00:00:32;14.45;;;8.48;;
60078;SDS011;45951;45.824;8.824;2023-04-06T00:06:32;12.65;;;8.15;;
60078;SDS011;45951;45.824;8.824;2023-04-06T00:12:33;12.63;;;8.43;;
60078;SDS011;45951;45.824;8.824;2023-04-06T00:18:33;14.25;;;8.05;;
60078;SDS011;45951;45.824;8.824;2023-04-06T00:24:34;12.05;;;7.75;;
60078;SDS011;45951;45.824;8.824;2023-04-06T00:30:34;12.85;;;7.70;;
60078;SDS011;45951;45.824;8.824;2023-04-06T00:36:34;11.55;;;7.50;;
60078;SDS011;45951;45.824;8.824;2023-04-06T00:42:35;13.80;;;8.25;;
60078;SDS011;45951;45.824;8.824;2023-04-06T00:48:35;10.85;;;7.47;;
60078;SDS011;45951;45.824;8.824;2023-04-06T00:54:36;12.45;;;7.32;;
60078;SDS011;45951;45.824;8.824;2023-04-06T01:00:36;11.07;;;7.30;;
60078;SDS011;45951;45.824;8.824;2023-04-06T01:06:37;10.57;;;6.97;;
60078;SDS011;45951;45.824;8.824;2023-04-06T01:12:37;11.53;;;7.13;;
60078;SDS011;45951;45.824;8.824;2023-04-06T01:18:38;12.32;;;7.40;;
60078;SDS011;45951;45.824;8.824;2023-04-06T01:24:39;10.87;;;6.70;;
60078;SDS011;45951;45.824;8.824;2023-04-06T01:30:39;10.45;;;6.50;;
60078;SDS011;45951;45.824;8.824;2023-04-06T01:36:40;10.73;;;7.10;;
60078;SDS011;45951;45.824;8.824;2023-04-06T01:42:40;10.93;;;6.40;;
60078;SDS011;45951;45.824;8.824;2023-04-06T01:48:41;12.50;;;6.45;;
60078;SDS011;45951;45.824;8.824;2023-04-06T01:54:42;10.13;;;6.63;;
60078;SDS011;45951;45.824;8.824;2023-04-06T02:00:42;10.68;;;6.43;;
60078;SDS011;45951;45.824;8.824;2023-04-06T02:06:42;9.85;;;6.10;;
60078;SDS011;45951;45.824;8.824;2023-04-06T02:12:43;10.20;;;6.65;;
60078;SDS011;45951;45.824;8.824;2023-04-06T02:18:43;10.70;;;6.40;;
60078;SDS011;45951;45.824;8.824;2023-04-06T02:24:43;13.82;;;5.90;;
60078;SDS011;45951;45.824;8.824;2023-04-06T02:30:44;12.05;;;5.85;;
60078;SDS011;45951;45.824;8.824;2023-04-06T02:36:44;9.37;;;5.20;;
60078;SDS011;45951;45.824;8.824;2023-04-06T02:42:45;10.25;;;5.90;;
60078;SDS011;45951;45.824;8.824;2023-04-06T02:48:45;8.40;;;5.85;;
60078;SDS011;45951;45.824;8.824;2023-04-06T02:54:46;8.15;;;5.57;;
60078;SDS011;45951;45.824;8.824;2023-04-06T03:00:46;8.20;;;5.30;;
60078;SDS011;45951;45.824;8.824;2023-04-06T03:06:46;7.75;;;5.22;;
60078;SDS011;45951;45.824;8.824;2023-04-06T03:12:47;9.57;;;5.43;;
60078;SDS011;45951;45.824;8.824;2023-04-06T03:18:47;10.25;;;5.35;;
60078;SDS011;45951;45.824;8.824;2023-04-06T03:24:47;7.18;;;4.85;;
60078;SDS011;45951;45.824;8.824;2023-04-06T03:30:48;8.30;;;5.13;;
60078;SDS011;45951;45.824;8.824;2023-04-06T03:36:49;9.00;;;5.40;;
60078;SDS011;45951;45.824;8.824;2023-04-06T03:42:49;9.60;;;5.33;;
60078;SDS011;45951;45.824;8.824;2023-04-06T03:48:50;21.98;;;6.20;;
60078;SDS011;45951;45.824;8.824;2023-04-06T03:54:51;9.18;;;5.05;;
60078;SDS011;45951;45.824;8.824;2023-04-06T04:00:51;7.85;;;5.00;;
60078;SDS011;45951;45.824;8.824;2023-04-06T04:06:51;8.13;;;4.88;;
60078;SDS011;45951;45.824;8.824;2023-04-06T04:12:51;8.57;;;4.80;;
60078;SDS011;45951;45.824;8.824;2023-04-06T04:18:52;8.63;;;5.22;;
60078;SDS011;45951;45.824;8.824;2023-04-06T04:24:52;13.00;;;5.20;;
60078;SDS011;45951;45.824;8.824;2023-04-06T04:30:53;8.48;;;4.93;;
60078;SDS011;45951;45.824;8.824;2023-04-06T04:36:53;8.35;;;5.30;;
60078;SDS011;45951;45.824;8.824;2023-04-06T04:42:53;7.13;;;4.63;;
60078;SDS011;45951;45.824;8.824;2023-04-06T04:48:54;8.07;;;4.63;;
60078;SDS011;45951;45.824;8.824;2023-04-06T04:54:54;9.02;;;4.90;;
60078;SDS011;45951;45.824;8.824;2023-04-06T05:00:54;8.93;;;4.73;;
60078;SDS011;45951;45.824;8.824;2023-04-06T05:07:08;6.97;;;4.37;;
60078;SDS011;45951;45.824;8.824;2023-04-06T05:13:09;8.02;;;4.45;;
60078;SDS011;45951;45.824;8.824;2023-04-06T05:19:09;8.70;;;4.83;;
60078;SDS011;45951;45.824;8.824;2023-04-06T05:25:12;9.60;;;4.47;;
60078;SDS011;45951;45.824;8.824;2023-04-06T05:31:13;8.38;;;4.68;;
60078;SDS011;45951;45.824;8.824;2023-04-06T05:37:14;10.25;;;4.18;;
60078;SDS011;45951;45.824;8.824;2023-04-06T05:43:15;10.07;;;4.90;;
60078;SDS011;45951;45.824;8.824;2023-04-06T05:49:15;10.40;;;5.65;;
60078;SDS011;45951;45.824;8.824;2023-04-06T05:55:15;8.27;;;4.57;;
60078;SDS011;45951;45.824;8.824;2023-04-06T06:01:16;9.40;;;4.47;;
60078;SDS011;45951;45.824;8.824;2023-04-06T06:07:16;8.43;;;4.40;;
60078;SDS011;45951;45.824;8.824;2023-04-06T06:13:17;12.00;;;6.00;;
60078;SDS011;45951;45.824;8.824;2023-04-06T06:19:17;8.83;;;5.13;;
60078;SDS011;45951;45.824;8.824;2023-04-06T06:25:17;8.77;;;5.47;;
60078;SDS011;45951;45.824;8.824;2023-04-06T06:31:18;10.25;;;6.25;;
60078;SDS011;45951;45.824;8.824;2023-04-06T06:37:20;12.90;;;5.55;;
60078;SDS011;45951;45.824;8.824;2023-04-06T06:43:20;8.77;;;6.10;;
60078;SDS011;45951;45.824;8.824;2023-04-06T06:49:21;10.48;;;7.03;;
60078;SDS011;45951;45.824;8.824;2023-04-06T06:55:21;12.02;;;7.78;;
60078;SDS011;45951;45.824;8.824;2023-04-06T07:01:21;10.50;;;6.90;;
60078;SDS011;45951;45.824;8.824;2023-04-06T07:07:22;12.10;;;7.77;;
60078;SDS011;45951;45.824;8.824;2023-04-06T07:13:22;13.93;;;7.82;;
60078;SDS011;45951;45.824;8.824;2023-04-06T07:19:23;10.10;;;7.40;;
60078;SDS011;45951;45.824;8.824;2023-04-06T07:25:23;11.43;;;6.80;;
60078;SDS011;45951;45.824;8.824;2023-04-06T07:31:23;16.45;;;9.70;;
60078;SDS011;45951;45.824;8.824;2023-04-06T07:37:24;8.57;;;5.90;;
60078;SDS011;45951;45.824;8.824;2023-04-06T07:43:25;17.90;;;6.13;;
60078;SDS011;45951;45.824;8.824;2023-04-06T07:49:25;11.65;;;7.53;;
60078;SDS011;45951;45.824;8.824;2023-04-06T07:55:26;35.58;;;10.18;;
60078;SDS011;45951;45.824;8.824;2023-04-06T08:01:27;11.18;;;7.20;;
60078;SDS011;45951;45.824;8.824;2023-04-06T08:07:27;9.95;;;5.22;;
60078;SDS011;45951;45.824;8.824;2023-04-06T08:13:27;8.80;;;5.43;;
60078;SDS011;45951;45.824;8.824;2023-04-06T08:19:28;10.98;;;5.07;;
60078;SDS011;45951;45.824;8.824;2023-04-06T08:25:28;9.82;;;6.05;;
60078;SDS011;45951;45.824;8.824;2023-04-06T08:31:29;8.23;;;5.07;;
60078;SDS011;45951;45.824;8.824;2023-04-06T08:37:30;10.88;;;5.53;;
60078;SDS011;45951;45.824;8.824;2023-04-06T08:43:31;7.78;;;4.50;;
60078;SDS011;45951;45.824;8.824;2023-04-06T08:49:31;8.27;;;5.07;;
60078;SDS011;45951;45.824;8.824;2023-04-06T08:55:33;7.95;;;4.75;;
60078;SDS011;45951;45.824;8.824;2023-04-06T09:01:33;8.05;;;4.93;;
60078;SDS011;45951;45.824;8.824;2023-04-06T09:07:41;8.38;;;4.93;;
60078;SDS011;45951;45.824;8.824;2023-04-06T09:13:45;7.00;;;4.53;;
60078;SDS011;45951;45.824;8.824;2023-04-06T09:19:50;6.78;;;4.70;;
60078;SDS011;45951;45.824;8.824;2023-04-06T09:25:50;7.60;;;4.72;;
60078;SDS011;45951;45.824;8.824;2023-04-06T09:31:50;10.27;;;5.88;;
60078;SDS011;45951;45.824;8.824;2023-04-06T09:37:51;9.13;;;6.60;;
60078;SDS011;45951;45.824;8.824;2023-04-06T09:43:52;10.45;;;6.07;;
60078;SDS011;45951;45.824;8.824;2023-04-06T09:50:05;11.18;;;6.85;;
60078;SDS011;45951;45.824;8.824;2023-04-06T09:56:05;10.48;;;6.85;;
60078;SDS011;45951;45.824;8.824;2023-04-06T10:02:06;10.80;;;7.38;;
60078;SDS011;45951;45.824;8.824;2023-04-06T10:08:09;11.30;;;6.75;;
60078;SDS011;45951;45.824;8.824;2023-04-06T10:14:10;12.13;;;7.28;;
60078;SDS011;45951;45.824;8.824;2023-04-06T10:20:13;10.63;;;7.32;;
60078;SDS011;45951;45.824;8.824;2023-04-06T10:26:21;12.70;;;8.73;;
60078;SDS011;45951;45.824;8.824;2023-04-06T10:32:31;13.93;;;7.90;;
60078;SDS011;45951;45.824;8.824;2023-04-06T10:38:41;12.85;;;8.50;;
60078;SDS011;45951;45.824;8.824;2023-04-06T10:44:43;12.27;;;7.72;;
60078;SDS011;45951;45.824;8.824;2023-04-06T10:50:46;13.63;;;8.52;;
60078;SDS011;45951;45.824;8.824;2023-04-06T10:56:48;12.07;;;8.07;;
60078;SDS011;45951;45.824;8.824;2023-04-06T11:02:48;13.20;;;7.97;;
60078;SDS011;45951;45.824;8.824;2023-04-06T11:08:49;13.85;;;8.38;;
60078;SDS011;45951;45.824;8.824;2023-04-06T11:15:08;10.10;;;7.30;;
60078;SDS011;45951;45.824;8.824;2023-04-06T11:21:09;13.25;;;8.32;;
60078;SDS011;45951;45.824;8.824;2023-04-06T11:27:09;14.63;;;8.53;;
60078;SDS011;45951;45.824;8.824;2023-04-06T11:33:10;11.67;;;8.23;;
60078;SDS011;45951;45.824;8.824;2023-04-06T11:39:11;12.60;;;8.68;;
60078;SDS011;45951;45.824;8.824;2023-04-06T11:45:15;16.33;;;8.20;;
60078;SDS011;45951;45.824;8.824;2023-04-06T11:51:22;12.38;;;8.23;;
60078;SDS011;45951;45.824;8.824;2023-04-06T11:57:26;13.13;;;8.02;;
60078;SDS011;45951;45.824;8.824;2023-04-06T12:03:27;11.40;;;6.65;;
60078;SDS011;45951;45.824;8.824;2023-04-06T12:09:28;11.43;;;7.53;;
60078;SDS011;45951;45.824;8.824;2023-04-06T12:15:29;13.85;;;8.35;;
60078;SDS011;45951;45.824;8.824;2023-04-06T12:21:29;11.77;;;7.23;;
60078;SDS011;45951;45.824;8.824;2023-04-06T12:27:33;10.63;;;7.28;;
60078;SDS011;45951;45.824;8.824;2023-04-06T12:33:33;19.02;;;7.70;;
60078;SDS011;45951;45.824;8.824;2023-04-06T12:39:34;11.30;;;7.13;;
60078;SDS011;45951;45.824;8.824;2023-04-06T12:45:35;11.65;;;7.57;;
60078;SDS011;45951;45.824;8.824;2023-04-06T12:51:35;11.73;;;7.70;;
60078;SDS011;45951;45.824;8.824;2023-04-06T12:57:36;10.13;;;7.10;;
60078;SDS011;45951;45.824;8.824;2023-04-06T13:03:37;12.20;;;8.00;;
60078;SDS011;45951;45.824;8.824;2023-04-06T13:09:37;11.40;;;8.07;;
60078;SDS011;45951;45.824;8.824;2023-04-06T13:15:37;8.35;;;5.82;;
60078;SDS011;45951;45.824;8.824;2023-04-06T13:21:38;13.13;;;9.23;;
60078;SDS011;45951;45.824;8.824;2023-04-06T13:27:39;12.75;;;7.68;;
60078;SDS011;45951;45.824;8.824;2023-04-06T13:33:39;11.40;;;7.50;;
60078;SDS011;45951;45.824;8.824;2023-04-06T13:39:40;11.27;;;7.68;;
60078;SDS011;45951;45.824;8.824;2023-04-06T13:45:41;11.35;;;7.50;;
60078;SDS011;45951;45.824;8.824;2023-04-06T13:51:41;12.82;;;7.88;;
60078;SDS011;45951;45.824;8.824;2023-04-06T13:57:42;12.82;;;8.23;;
60078;SDS011;45951;45.824;8.824;2023-04-06T14:03:44;9.70;;;6.77;;
60078;SDS011;45951;45.824;8.824;2023-04-06T14:09:46;10.10;;;7.43;;
60078;SDS011;45951;45.824;8.824;2023-04-06T14:15:47;12.17;;;7.97;;
60078;SDS011;45951;45.824;8.824;2023-04-06T14:21:52;11.85;;;7.25;;
60078;SDS011;45951;45.824;8.824;2023-04-06T14:27:53;11.35;;;7.55;;
60078;SDS011;45951;45.824;8.824;2023-04-06T14:33:54;16.73;;;12.03;;
60078;SDS011;45951;45.824;8.824;2023-04-06T14:39:54;10.57;;;6.95;;
60078;SDS011;45951;45.824;8.824;2023-04-06T14:45:58;11.40;;;6.70;;
60078;SDS011;45951;45.824;8.824;2023-04-06T14:51:59;10.55;;;6.95;;
60078;SDS011;45951;45.824;8.824;2023-04-06T14:58:00;11.50;;;6.88;;
60078;SDS011;45951;45.824;8.824;2023-04-06T15:04:02;12.75;;;7.10;;
60078;SDS011;45951;45.824;8.824;2023-04-06T15:10:03;12.45;;;6.57;;
60078;SDS011;45951;45.824;8.824;2023-04-06T15:16:04;11.73;;;7.03;;
60078;SDS011;45951;45.824;8.824;2023-04-06T15:22:05;12.40;;;7.15;;
60078;SDS011;45951;45.824;8.824;2023-04-06T15:28:06;11.77;;;7.20;;
60078;SDS011;45951;45.824;8.824;2023-04-06T15:34:06;13.25;;;7.93;;
60078;SDS011;45951;45.824;8.824;2023-04-06T15:40:09;12.93;;;8.10;;
60078;SDS011;45951;45.824;8.824;2023-04-06T15:46:13;12.55;;;8.52;;
60078;SDS011;45951;45.824;8.824;2023-04-06T15:52:13;17.27;;;8.52;;
60078;SDS011;45951;45.824;8.824;2023-04-06T15:58:16;12.18;;;7.43;;
60078;SDS011;45951;45.824;8.824;2023-04-06T16:04:17;11.02;;;7.35;;
60078;SDS011;45951;45.824;8.824;2023-04-06T16:10:17;11.55;;;7.88;;
60078;SDS011;45951;45.824;8.824;2023-04-06T16:16:18;12.85;;;7.15;;
60078;SDS011;45951;45.824;8.824;2023-04-06T16:22:18;12.37;;;7.53;;
60078;SDS011;45951;45.824;8.824;2023-04-06T16:28:19;9.80;;;6.57;;
60078;SDS011;45951;45.824;8.824;2023-04-06T16:34:22;11.95;;;8.02;;
60078;SDS011;45951;45.824;8.824;2023-04-06T16:40:22;9.70;;;6.60;;
60078;SDS011;45951;45.824;8.824;2023-04-06T16:46:29;14.45;;;7.00;;
60078;SDS011;45951;45.824;8.824;2023-04-06T16:52:30;11.27;;;6.63;;
60078;SDS011;45951;45.824;8.824;2023-04-06T16:58:31;11.43;;;6.90;;
60078;SDS011;45951;45.824;8.824;2023-04-06T17:04:32;10.88;;;6.90;;
60078;SDS011;45951;45.824;8.824;2023-04-06T17:10:32;10.07;;;6.50;;
60078;SDS011;45951;45.824;8.824;2023-04-06T17:16:33;13.48;;;7.45;;
60078;SDS011;45951;45.824;8.824;2023-04-06T17:22:34;11.73;;;6.95;;
60078;SDS011;45951;45.824;8.824;2023-04-06T17:28:35;12.02;;;7.68;;
60078;SDS011;45951;45.824;8.824;2023-04-06T17:34:35;16.85;;;7.63;;
60078;SDS011;45951;45.824;8.824;2023-04-06T17:40:36;14.15;;;7.38;;
60078;SDS011;45951;45.824;8.824;2023-04-06T17:46:36;15.85;;;7.25;;
60078;SDS011;45951;45.824;8.824;2023-04-06T17:52:37;10.55;;;6.90;;
60078;SDS011;45951;45.824;8.824;2023-04-06T17:58:37;15.45;;;7.63;;
60078;SDS011;45951;45.824;8.824;2023-04-06T18:04:38;12.00;;;7.07;;
60078;SDS011;45951;45.824;8.824;2023-04-06T18:10:42;11.90;;;7.35;;
60078;SDS011;45951;45.824;8.824;2023-04-06T18:16:45;11.00;;;7.47;;
60078;SDS011;45951;45.824;8.824;2023-04-06T18:22:45;15.25;;;7.95;;
60078;SDS011;45951;45.824;8.824;2023-04-06T18:28:45;12.82;;;7.30;;
60078;SDS011;45951;45.824;8.824;2023-04-06T18:34:46;13.40;;;7.20;;
60078;SDS011;45951;45.824;8.824;2023-04-06T18:40:46;12.30;;;7.47;;
60078;SDS011;45951;45.824;8.824;2023-04-06T18:46:47;14.25;;;8.05;;
60078;SDS011;45951;45.824;8.824;2023-04-06T18:52:47;16.35;;;7.85;;
60078;SDS011;45951;45.824;8.824;2023-04-06T18:58:47;16.92;;;8.10;;
60078;SDS011;45951;45.824;8.824;2023-04-06T19:04:48;13.13;;;8.60;;
60078;SDS011;45951;45.824;8.824;2023-04-06T19:10:48;12.18;;;7.05;;
60078;SDS011;45951;45.824;8.824;2023-04-06T19:16:48;12.30;;;7.78;;
60078;SDS011;45951;45.824;8.824;2023-04-06T19:22:51;14.02;;;8.20;;
60078;SDS011;45951;45.824;8.824;2023-04-06T19:28:51;16.23;;;9.63;;
60078;SDS011;45951;45.824;8.824;2023-04-06T19:34:51;15.98;;;9.30;;
60078;SDS011;45951;45.824;8.824;2023-04-06T19:40:52;17.13;;;10.07;;
60078;SDS011;45951;45.824;8.824;2023-04-06T19:46:52;21.10;;;10.50;;
60078;SDS011;45951;45.824;8.824;2023-04-06T19:52:52;17.23;;;10.32;;
60078;SDS011;45951;45.824;8.824;2023-04-06T19:58:55;16.10;;;9.07;;
60078;SDS011;45951;45.824;8.824;2023-04-06T20:04:55;13.30;;;9.23;;
60078;SDS011;45951;45.824;8.824;2023-04-06T20:11:05;12.75;;;8.85;;
60078;SDS011;45951;45.824;8.824;2023-04-06T20:17:08;16.70;;;9.40;;
60078;SDS011;45951;45.824;8.824;2023-04-06T20:23:08;17.75;;;9.63;;
60078;SDS011;45951;45.824;8.824;2023-04-06T20:29:10;15.63;;;9.25;;
60078;SDS011;45951;45.824;8.824;2023-04-06T20:35:10;17.67;;;9.50;;
60078;SDS011;45951;45.824;8.824;2023-04-06T20:41:10;13.23;;;8.25;;
60078;SDS011;45951;45.824;8.824;2023-04-06T20:47:11;14.07;;;8.52;;
60078;SDS011;45951;45.824;8.824;2023-04-06T20:53:11;13.73;;;8.57;;
60078;SDS011;45951;45.824;8.824;2023-04-06T20:59:11;12.57;;;7.83;;
60078;SDS011;45951;45.824;8.824;2023-04-06T21:05:12;11.98;;;7.10;;
60078;SDS011;45951;45.824;8.824;2023-04-06T21:11:13;13.75;;;7.15;;
60078;SDS011;45951;45.824;8.824;2023-04-06T21:17:13;10.30;;;6.88;;
60078;SDS011;45951;45.824;8.824;2023-04-06T21:23:14;11.07;;;6.47;;
60078;SDS011;45951;45.824;8.824;2023-04-06T21:29:15;10.50;;;6.10;;
60078;SDS011;45951;45.824;8.824;2023-04-06T21:35:15;9.45;;;5.55;;
60078;SDS011;45951;45.824;8.824;2023-04-06T21:41:15;8.73;;;5.60;;
60078;SDS011;45951;45.824;8.824;2023-04-06T21:47:16;9.05;;;5.30;;
60078;SDS011;45951;45.824;8.824;2023-04-06T21:53:16;10.27;;;5.15;;
60078;SDS011;45951;45.824;8.824;2023-04-06T21:59:17;9.40;;;5.40;;
60078;SDS011;45951;45.824;8.824;2023-04-06T22:05:17;9.40;;;4.80;;
60078;SDS011;45951;45.824;8.824;2023-04-06T22:11:17;11.57;;;5.25;;
60078;SDS011;45951;45.824;8.824;2023-04-06T22:17:18;8.90;;;5.13;;
60078;SDS011;45951;45.824;8.824;2023-04-06T22:23:18;8.52;;;4.97;;
60078;SDS011;45951;45.824;8.824;2023-04-06T22:29:19;8.15;;;4.78;;
60078;SDS011;45951;45.824;8.824;2023-04-06T22:35:20;8.02;;;5.00;;
60078;SDS011;45951;45.824;8.824;2023-04-06T22:41:20;8.45;;;5.38;;
60078;SDS011;45951;45.824;8.824;2023-04-06T22:47:20;9.70;;;5.60;;
60078;SDS011;45951;45.824;8.824;2023-04-06T22:53:21;9.10;;;5.28;;
60078;SDS011;45951;45.824;8.824;2023-04-06T22:59:21;9.73;;;5.40;;
60078;SDS011;45951;45.824;8.824;2023-04-06T23:05:21;10.75;;;5.50;;
60078;SDS011;45951;45.824;8.824;2023-04-06T23:11:22;8.27;;;4.90;;
60078;SDS011;45951;45.824;8.824;2023-04-06T23:17:22;14.20;;;6.13;;
60078;SDS011;45951;45.824;8.824;2023-04-06T23:23:22;9.17;;;5.17;;
60078;SDS011;45951;45.824;8.824;2023-04-06T23:29:23;9.20;;;5.18;;
60078;SDS011;45951;45.824;8.824;2023-04-06T23:35:23;9.40;;;4.93;;
60078;SDS011;45951;45.824;8.824;2023-04-06T23:41:23;8.05;;;4.93;;
60078;SDS011;45951;45.824;8.824;2023-04-06T23:47:25;9.98;;;5.22;;
60078;SDS011;45951;45.824;8.824;2023-04-06T23:53:25;9.63;;;5.15;;
60078;SDS011;45951;45.824;8.824;2023-04-06T23:59:25;9.10;;;5.17;;
